Time;durP1;ratioP1;P1;durP2;ratioP2;P2;SDS_P1;SDS_P2;PMS_P1;PMS_P2;Temp;Humidity;BMP_temperature;BMP_pressure;BME280_temperature;BME280_humidity;BME280_pressure;Samples;Min_cycle;Max_cycle;Signal;HPM_P1;HPM_P2
2021/01/12 00:01:50;;;;;;;168.93;89.70;;;;;;;-0.68;68.79;94497.45;1751653;80;21128;-50
2021/01/12 00:04:19;;;;;;;163.55;86.80;;;;;;;-0.71;68.91;94496.86;1747163;80;21130;-50
2021/01/12 00:06:50;;;;;;;158.00;83.87;;;;;;;-0.65;69.23;94496.68;1753740;80;21062;-51
2021/01/12 00:09:18;;;;;;;148.57;79.53;;;;;;;-0.51;68.76;94495.37;1757849;80;21373;-50
2021/01/12 00:11:47;;;;;;;122.90;67.10;;;;;;;-0.42;68.50;94491.73;1754534;80;21198;-50
2021/01/12 00:14:30;;;;;;;117.93;61.25;;;;;;;-0.39;68.25;94494.42;1762355;80;21582;-49
2021/01/12 00:17:01;;;;;;;128.50;66.07;;;;;;;-0.36;68.15;94505.05;1720660;82;21655;-50
2021/01/12 00:19:29;;;;;;;159.80;76.72;;;;;;;-0.32;68.04;94500.42;1712526;82;21501;-51
2021/01/12 00:21:58;;;;;;;171.85;87.50;;;;;;;-0.26;68.08;94508.36;1754936;79;21204;-50
2021/01/12 00:24:26;;;;;;;182.50;89.25;;;;;;;-0.15;67.90;94505.08;1722152;81;21163;-50
2021/01/12 00:26:55;;;;;;;137.20;73.55;;;;;;;-0.03;67.58;94503.36;1760382;80;21079;-50
2021/01/12 00:29:23;;;;;;;139.28;69.60;;;;;;;0.05;67.15;94502.38;1762403;80;21457;-50
2021/01/12 00:31:51;;;;;;;112.30;57.53;;;;;;;0.08;66.71;94504.30;1758645;80;21183;-51
2021/01/12 00:34:21;;;;;;;117.62;62.00;;;;;;;0.07;66.40;94508.16;1759763;80;21359;-50
2021/01/12 00:36:51;;;;;;;128.30;63.20;;;;;;;0.03;66.12;94504.70;1756546;80;21154;-50
2021/01/12 00:39:20;;;;;;;137.60;72.65;;;;;;;-0.02;66.35;94501.59;1760188;80;21111;-50
2021/01/12 00:41:50;;;;;;;127.85;65.85;;;;;;;0.04;66.30;94500.83;1755711;80;21072;-51
2021/01/12 00:44:24;;;;;;;114.12;61.70;;;;;;;0.01;65.95;94503.56;1762824;80;21087;-50
2021/01/12 00:46:52;;;;;;;97.37;50.15;;;;;;;-0.24;66.05;94508.75;1766259;80;22440;-50
2021/01/12 00:49:23;;;;;;;103.42;55.75;;;;;;;-0.54;66.49;94505.59;1769043;80;21215;-50
2021/01/12 00:51:53;;;;;;;113.60;59.42;;;;;;;-0.81;67.23;94505.72;1752393;80;21115;-50
2021/01/12 00:54:22;;;;;;;106.12;55.52;;;;;;;-0.89;67.73;94502.78;1760652;80;21216;-51
2021/01/12 00:56:53;;;;;;;111.03;59.25;;;;;;;-0.95;67.71;94501.61;1755625;80;21170;-52
2021/01/12 00:59:21;;;;;;;101.62;53.08;;;;;;;-1.11;67.89;94497.11;1753378;80;21403;-50
2021/01/12 01:01:50;;;;;;;95.25;52.40;;;;;;;-1.25;68.53;94499.73;1769513;80;21080;-51
2021/01/12 01:04:19;;;;;;;114.97;57.88;;;;;;;-1.23;68.90;94496.87;1774408;80;21677;-49
2021/01/12 01:06:48;;;;;;;126.75;61.80;;;;;;;-1.15;68.75;94492.28;1765789;80;21122;-49
2021/01/12 01:09:16;;;;;;;117.90;62.55;;;;;;;-1.14;68.66;94494.58;1759007;80;21162;-51
2021/01/12 01:11:46;;;;;;;124.10;64.45;;;;;;;-1.19;68.69;94491.47;1767038;80;22036;-51
2021/01/12 01:14:15;;;;;;;138.35;67.78;;;;;;;-1.27;68.67;94479.11;1759869;80;21516;-51
2021/01/12 01:16:44;;;;;;;130.30;66.60;;;;;;;-1.31;69.04;94482.37;1765994;80;21076;-50
2021/01/12 01:19:12;;;;;;;131.45;64.87;;;;;;;-1.24;69.10;94481.05;1753898;80;21085;-50
2021/01/12 01:21:40;;;;;;;122.30;62.73;;;;;;;-1.20;68.87;94479.12;1752107;80;21548;-50
2021/01/12 01:24:10;;;;;;;129.23;66.20;;;;;;;-1.17;68.82;94476.45;1764374;80;21311;-51
2021/01/12 01:26:38;;;;;;;171.05;76.62;;;;;;;-1.08;68.40;94474.76;1774083;80;21582;-50
2021/01/12 01:29:06;;;;;;;136.15;65.40;;;;;;;-1.11;68.22;94474.17;1769970;80;21615;-50
2021/01/12 01:31:38;;;;;;;136.50;62.85;;;;;;;-1.15;68.28;94478.79;1765703;80;21064;-51
2021/01/12 01:34:07;;;;;;;132.60;60.27;;;;;;;-1.18;68.36;94479.55;1766007;80;21127;-51
2021/01/12 01:36:36;;;;;;;123.22;63.92;;;;;;;-1.18;68.27;94478.20;1759066;80;22127;-50
2021/01/12 01:39:05;;;;;;;115.37;58.02;;;;;;;-1.20;68.40;94476.44;1768607;80;21100;-50
2021/01/12 01:41:34;;;;;;;125.33;67.50;;;;;;;-1.26;67.97;94463.12;1759099;80;21060;-50
2021/01/12 01:44:06;;;;;;;118.22;57.40;;;;;;;-1.39;67.82;94465.38;1771077;80;21076;-50
2021/01/12 01:46:35;;;;;;;109.83;57.33;;;;;;;-1.48;68.02;94460.13;1758468;80;21480;-50
2021/01/12 01:49:03;;;;;;;112.72;57.45;;;;;;;-1.54;68.21;94458.95;1757139;80;22383;-49
2021/01/12 01:51:32;;;;;;;108.30;56.48;;;;;;;-1.62;68.24;94461.40;1773732;80;21238;-49
2021/01/12 01:54:00;;;;;;;93.40;49.53;;;;;;;-1.69;68.23;94458.08;1768890;80;21064;-49
2021/01/12 01:56:28;;;;;;;112.28;53.00;;;;;;;-1.84;68.41;94453.55;1757491;80;21133;-50
2021/01/12 01:58:57;;;;;;;96.85;49.20;;;;;;;-1.95;68.82;94453.48;1768561;80;21119;-51
2021/01/12 02:01:26;;;;;;;94.67;47.58;;;;;;;-1.97;69.05;94446.95;1777771;80;23456;-50
2021/01/12 02:04:06;;;;;;;98.50;53.42;;;;;;;-2.07;68.79;94446.28;1756025;80;21079;-50
2021/01/12 02:06:35;;;;;;;114.28;54.88;;;;;;;-2.27;69.17;94443.08;1756392;80;21083;-50
2021/01/12 02:09:24;;;;;;;131.93;60.45;;;;;;;-2.32;69.51;94450.72;1760858;80;21516;-50
2021/01/12 02:11:57;;;;;;;126.12;58.38;;;;;;;-2.31;69.34;94448.98;1759508;80;21048;-50
2021/01/12 02:14:27;;;;;;;122.02;54.95;;;;;;;-2.34;69.58;94445.70;1754634;80;21388;-49
2021/01/12 02:16:56;;;;;;;102.15;51.50;;;;;;;-2.31;69.42;94441.49;1766647;80;21496;-50
2021/01/12 02:19:27;;;;;;;90.40;48.02;;;;;;;-2.34;69.40;94443.00;1769357;80;21495;-50
2021/01/12 02:22:04;;;;;;;100.00;50.88;;;;;;;-2.36;69.68;94439.91;1771218;80;21075;-49
2021/01/12 02:24:33;;;;;;;106.45;55.15;;;;;;;-2.32;69.59;94429.94;1763067;80;21080;-49
2021/01/12 02:27:04;;;;;;;109.90;53.05;;;;;;;-2.27;69.61;94436.34;1735110;81;21374;-50
2021/01/12 02:29:33;;;;;;;102.78;53.80;;;;;;;-2.21;69.57;94425.41;1761691;80;21174;-50
2021/01/12 02:32:01;;;;;;;103.72;52.45;;;;;;;-2.08;69.57;94429.36;1756519;80;21289;-51
2021/01/12 02:34:29;;;;;;;97.27;51.33;;;;;;;-2.03;68.96;94431.69;1752083;79;21176;-51
2021/01/12 02:36:58;;;;;;;128.65;61.45;;;;;;;-2.08;68.98;94429.36;1753688;80;21072;-50
2021/01/12 02:39:26;;;;;;;151.87;64.90;;;;;;;-2.05;69.04;94425.91;1729779;80;21384;-51
2021/01/12 02:41:55;;;;;;;166.28;71.45;;;;;;;-2.01;68.63;94428.05;1759624;80;21504;-51
2021/01/12 02:44:27;;;;;;;208.20;88.52;;;;;;;-2.10;68.58;94430.88;1779795;80;21096;-50
2021/01/12 02:46:56;;;;;;;134.47;63.45;;;;;;;-2.13;68.60;94432.38;1777498;80;21171;-51
2021/01/12 02:49:24;;;;;;;112.42;56.23;;;;;;;-2.16;68.44;94425.05;1773427;80;21061;-50
2021/01/12 02:51:52;;;;;;;77.20;44.98;;;;;;;-2.16;68.40;94418.91;1779709;80;21379;-52
2021/01/12 02:54:21;;;;;;;84.52;46.70;;;;;;;-2.19;68.20;94412.34;1773172;80;21162;-50
2021/01/12 02:56:49;;;;;;;89.32;46.83;;;;;;;-2.20;68.16;94409.45;1751460;80;21140;-50
2021/01/12 02:59:18;;;;;;;79.12;43.63;;;;;;;-2.24;68.02;94401.92;1777179;80;21095;-52
2021/01/12 03:01:46;;;;;;;82.20;44.08;;;;;;;-2.22;68.18;94406.92;1762294;80;21182;-51
2021/01/12 03:04:15;;;;;;;84.65;46.58;;;;;;;-2.18;67.92;94399.06;1753058;80;22253;-50
2021/01/12 03:06:43;;;;;;;92.10;45.67;;;;;;;-2.18;67.83;94407.15;1768995;80;21496;-50
2021/01/12 03:09:12;;;;;;;85.03;45.35;;;;;;;-2.15;67.87;94394.27;1761476;80;21064;-51
2021/01/12 03:11:40;;;;;;;85.90;46.05;;;;;;;-2.12;67.42;94391.41;1759896;80;21052;-49
2021/01/12 03:14:09;;;;;;;90.75;48.08;;;;;;;-2.18;67.57;94392.33;1760480;80;21637;-50
2021/01/12 03:16:37;;;;;;;84.13;44.83;;;;;;;-2.07;67.46;94389.70;1773043;80;21434;-52
2021/01/12 03:19:06;;;;;;;94.40;48.02;;;;;;;-2.01;67.05;94383.59;1779695;80;21507;-52
2021/01/12 03:21:35;;;;;;;128.87;56.88;;;;;;;-2.13;66.83;94383.89;1775051;80;21151;-52
2021/01/12 03:24:06;;;;;;;118.13;51.92;;;;;;;-2.26;67.16;94387.27;1771940;80;21166;-51
2021/01/12 03:26:34;;;;;;;106.03;51.13;;;;;;;-2.29;67.11;94393.41;1754621;80;21143;-53
2021/01/12 03:29:03;;;;;;;95.97;48.75;;;;;;;-2.30;67.13;94397.25;1760748;80;21323;-50
2021/01/12 03:31:31;;;;;;;92.17;45.52;;;;;;;-2.28;66.93;94393.05;1760700;80;21156;-51
2021/01/12 03:34:00;;;;;;;81.20;44.20;;;;;;;-2.35;66.83;94390.29;1767213;80;21104;-48
2021/01/12 03:36:28;;;;;;;81.70;43.60;;;;;;;-2.38;66.81;94391.05;1755849;80;21127;-48
2021/01/12 03:38:56;;;;;;;79.55;44.58;;;;;;;-2.37;67.03;94387.20;1767648;80;21599;-49
2021/01/12 03:41:25;;;;;;;82.17;43.90;;;;;;;-2.27;66.95;94384.38;1764338;80;21347;-49
2021/01/12 03:43:53;;;;;;;83.65;45.48;;;;;;;-2.19;66.95;94384.05;1752638;80;21513;-49
2021/01/12 03:46:21;;;;;;;87.62;43.25;;;;;;;-2.11;66.53;94376.20;1771269;80;21072;-47
2021/01/12 03:48:49;;;;;;;106.05;51.73;;;;;;;-2.08;66.49;94383.55;1762033;80;21203;-49
2021/01/12 03:51:19;;;;;;;108.57;51.45;;;;;;;-2.06;66.29;94379.91;1755586;80;21376;-51
2021/01/12 03:53:47;;;;;;;100.50;48.83;;;;;;;-2.16;66.24;94379.26;1759975;80;22114;-50
2021/01/12 03:56:16;;;;;;;87.90;44.63;;;;;;;-2.18;66.59;94373.48;1766219;80;21575;-48
2021/01/12 03:58:44;;;;;;;81.12;44.33;;;;;;;-2.23;66.64;94379.23;1751100;80;21135;-50
2021/01/12 04:01:14;;;;;;;79.03;39.33;;;;;;;-2.17;66.82;94371.57;1779760;80;21106;-50
2021/01/12 04:03:42;;;;;;;53.25;32.13;;;;;;;-2.20;66.65;94378.47;1758004;80;21469;-50
2021/01/12 04:06:13;;;;;;;51.13;30.40;;;;;;;-2.23;67.00;94368.45;1763079;80;22234;-49
2021/01/12 04:08:44;;;;;;;69.15;34.18;;;;;;;-2.21;66.88;94372.09;1756371;80;21109;-49
2021/01/12 04:11:17;;;;;;;72.58;38.67;;;;;;;-2.35;66.59;94366.05;1761424;80;21061;-50
2021/01/12 04:13:45;;;;;;;74.75;40.88;;;;;;;-2.52;66.70;94369.39;1749486;80;21516;-49
2021/01/12 04:16:13;;;;;;;83.80;43.50;;;;;;;-2.65;67.02;94365.44;1756042;80;21096;-50
2021/01/12 04:18:43;;;;;;;85.30;43.52;;;;;;;-2.66;67.30;94366.58;1766789;80;21356;-50
2021/01/12 04:21:12;;;;;;;81.90;44.63;;;;;;;-2.59;67.37;94368.00;1757206;80;21107;-50
2021/01/12 04:23:40;;;;;;;83.30;45.40;;;;;;;-2.50;67.19;94360.36;1758850;80;21561;-51
2021/01/12 04:26:09;;;;;;;92.15;50.90;;;;;;;-2.44;67.18;94357.55;1759017;80;21131;-49
2021/01/12 04:28:37;;;;;;;104.12;54.90;;;;;;;-2.35;67.04;94351.24;1780343;80;21123;-50
2021/01/12 04:31:06;;;;;;;121.67;59.08;;;;;;;-2.27;67.03;94350.16;1762978;80;21207;-49
2021/01/12 04:33:34;;;;;;;139.90;64.42;;;;;;;-2.25;66.78;94343.81;1759532;80;21520;-49
2021/01/12 04:36:04;;;;;;;141.50;69.35;;;;;;;-2.36;66.84;94349.70;1760881;79;21076;-52
2021/01/12 04:38:33;;;;;;;144.30;71.53;;;;;;;-2.40;67.24;94348.91;1760460;81;21709;-49
2021/01/12 04:41:02;;;;;;;127.92;66.50;;;;;;;-2.34;67.32;94346.64;1758535;80;21074;-51
2021/01/12 04:43:30;;;;;;;152.55;75.12;;;;;;;-2.31;67.14;94342.60;1774739;80;21428;-51
2021/01/12 04:46:00;;;;;;;129.65;62.58;;;;;;;-2.33;67.34;94340.86;1757694;80;21179;-50
2021/01/12 04:48:30;;;;;;;110.90;59.50;;;;;;;-2.26;67.19;94342.27;1779804;80;21051;-50
2021/01/12 04:51:09;;;;;;;116.20;56.58;;;;;;;-2.18;67.06;94339.80;1779746;80;21140;-49
2021/01/12 04:53:47;;;;;;;129.47;61.88;;;;;;;-2.04;66.66;94337.75;1770423;80;21634;-50
2021/01/12 04:56:16;;;;;;;140.62;68.33;;;;;;;-1.92;66.28;94338.20;1776439;80;21205;-52
2021/01/12 04:58:50;;;;;;;143.97;67.37;;;;;;;-1.85;65.87;94338.24;1760123;80;21536;-50
2021/01/12 05:01:21;;;;;;;132.97;64.82;;;;;;;-1.89;65.60;94336.11;1759130;80;21140;-51
2021/01/12 05:03:52;;;;;;;137.92;70.35;;;;;;;-2.07;65.82;94335.81;1776670;80;21136;-50
2021/01/12 05:06:22;;;;;;;141.28;68.95;;;;;;;-2.18;66.28;94329.63;1756596;80;21116;-51
2021/01/12 05:08:56;;;;;;;154.40;76.35;;;;;;;-2.13;66.40;94323.27;1768528;80;21360;-49
2021/01/12 05:11:33;;;;;;;147.82;71.97;;;;;;;-2.02;66.26;94330.06;1758418;80;21551;-51
2021/01/12 05:14:08;;;;;;;142.20;70.65;;;;;;;-1.92;66.07;94332.05;1758152;80;21096;-49
2021/01/12 05:16:50;;;;;;;140.28;68.40;;;;;;;-1.85;65.90;94327.46;1746292;80;21623;-49
2021/01/12 05:19:29;;;;;;;134.57;66.55;;;;;;;-1.76;65.55;94331.91;1757836;80;21102;-51
2021/01/12 05:22:01;;;;;;;114.52;55.95;;;;;;;-1.70;65.34;94329.07;1754449;80;21201;-51
2021/01/12 05:24:31;;;;;;;114.95;58.10;;;;;;;-1.80;65.12;94330.37;1770542;80;21163;-50
2021/01/12 05:27:06;;;;;;;111.52;56.98;;;;;;;-1.93;65.35;94323.77;1728244;81;21067;-51
2021/01/12 05:29:36;;;;;;;131.95;66.60;;;;;;;-1.94;65.51;94328.38;1761485;80;21089;-51
2021/01/12 05:32:11;;;;;;;138.82;72.42;;;;;;;-1.93;65.33;94319.13;1759363;80;21080;-50
2021/01/12 05:34:39;;;;;;;121.80;62.95;;;;;;;-2.06;65.56;94319.28;1762675;80;22020;-50
2021/01/12 05:37:09;;;;;;;133.15;68.72;;;;;;;-2.24;65.84;94317.08;1766465;80;21127;-49
2021/01/12 05:39:41;;;;;;;122.00;64.95;;;;;;;-2.46;66.32;94315.41;1765147;80;21151;-52
2021/01/12 05:42:11;;;;;;;130.07;68.25;;;;;;;-2.54;66.81;94316.50;1757073;80;21148;-50
2021/01/12 05:44:40;;;;;;;148.75;72.85;;;;;;;-2.56;66.86;94308.03;1764647;80;21124;-50
2021/01/12 05:47:17;;;;;;;139.20;71.37;;;;;;;-2.63;67.07;94312.03;1775954;80;22122;-50
2021/01/12 05:49:45;;;;;;;148.28;73.42;;;;;;;-2.65;67.58;94316.23;1774250;80;21166;-50
2021/01/12 05:52:14;;;;;;;215.20;102.78;;;;;;;-2.56;67.49;94312.06;1763310;80;21067;-50
2021/01/12 05:54:51;;;;;;;190.75;87.62;;;;;;;-2.63;67.37;94308.55;1764176;80;21080;-48
2021/01/12 05:57:22;;;;;;;203.62;102.22;;;;;;;-2.72;67.67;94300.80;1757521;80;21246;-52
2021/01/12 05:59:52;;;;;;;164.52;83.30;;;;;;;-2.61;68.07;94301.66;1754236;80;21370;-53
2021/01/12 06:02:21;;;;;;;202.32;98.60;;;;;;;-2.52;67.50;94303.43;1742277;80;21099;-51
2021/01/12 06:04:52;;;;;;;186.75;91.87;;;;;;;-2.60;67.41;94302.41;1753795;81;21147;-51
2021/01/12 06:07:20;;;;;;;157.18;80.10;;;;;;;-2.76;67.74;94300.01;1779479;80;21576;-50
2021/01/12 06:09:49;;;;;;;186.50;93.67;;;;;;;-2.82;67.90;94302.07;1758607;80;21186;-52
2021/01/12 06:12:17;;;;;;;202.95;99.52;;;;;;;-2.81;68.30;94300.37;1763352;80;21375;-51
2021/01/12 06:14:50;;;;;;;182.93;94.03;;;;;;;-2.72;68.17;94294.06;1759703;80;21519;-50
2021/01/12 06:17:19;;;;;;;203.98;101.60;;;;;;;-2.65;68.26;94290.07;1756981;80;21186;-52
2021/01/12 06:19:48;;;;;;;206.72;102.02;;;;;;;-2.59;67.96;94286.45;1761323;80;21211;-51
2021/01/12 06:22:18;;;;;;;219.20;108.07;;;;;;;-2.65;68.03;94280.65;1759061;80;21179;-50
2021/01/12 06:24:54;;;;;;;186.07;98.92;;;;;;;-2.63;68.26;94281.07;1770636;80;22240;-51
2021/01/12 06:27:29;;;;;;;191.75;93.37;;;;;;;-2.53;68.28;94284.39;1761505;80;21843;-50
2021/01/12 06:30:00;;;;;;;196.37;100.25;;;;;;;-2.42;68.13;94278.50;1761931;80;21136;-53
2021/01/12 06:32:30;;;;;;;194.77;96.35;;;;;;;-2.34;67.94;94287.39;1760536;80;21179;-49
2021/01/12 06:35:04;;;;;;;191.43;96.37;;;;;;;-2.27;67.81;94286.08;1766153;79;21160;-51
2021/01/12 06:37:42;;;;;;;183.07;93.33;;;;;;;-2.18;67.87;94285.93;1771781;80;21367;-52
2021/01/12 06:40:12;;;;;;;190.25;96.55;;;;;;;-2.11;67.76;94286.54;1761493;80;21099;-51
2021/01/12 06:42:40;;;;;;;171.85;88.07;;;;;;;-2.01;68.03;94274.45;1755484;80;21173;-53
2021/01/12 06:45:10;;;;;;;171.00;89.32;;;;;;;-1.76;67.78;94286.09;1748442;80;21141;-54
2021/01/12 06:47:40;;;;;;;231.00;119.00;;;;;;;-1.51;67.21;94285.60;1768107;80;21127;-53
2021/01/12 06:50:12;;;;;;;228.62;122.22;;;;;;;-1.28;66.95;94281.98;1757090;80;22125;-54
2021/01/12 06:52:47;;;;;;;190.10;97.17;;;;;;;-1.05;66.10;94279.11;1765945;80;21088;-54
2021/01/12 06:55:20;;;;;;;176.25;91.50;;;;;;;-1.09;65.38;94281.05;1763472;80;21211;-51
2021/01/12 06:57:50;;;;;;;163.52;85.47;;;;;;;-1.17;65.55;94276.03;1722531;82;21583;-52
2021/01/12 07:00:20;;;;;;;184.22;97.22;;;;;;;-1.26;65.51;94271.57;1745880;80;21363;-52
2021/01/12 07:02:59;;;;;;;234.35;111.32;;;;;;;-1.38;65.64;94274.06;1755110;80;22531;-49
2021/01/12 07:05:42;;;;;;;303.02;126.07;;;;;;;-1.49;65.93;94280.59;1745903;80;21164;-53
2021/01/12 07:08:11;;;;;;;272.73;120.47;;;;;;;-1.70;66.07;94280.55;1739683;80;21140;-54
2021/01/12 07:10:46;;;;;;;241.00;118.80;;;;;;;-1.86;66.54;94276.63;1738812;81;21573;-51
2021/01/12 07:13:14;;;;;;;225.30;117.28;;;;;;;-1.88;66.69;94283.75;1745054;80;21497;-54
2021/01/12 07:15:47;;;;;;;173.30;85.75;;;;;;;-1.77;67.05;94283.98;1751460;80;21204;-51
2021/01/12 07:18:21;;;;;;;163.20;89.70;;;;;;;-1.48;66.71;94276.73;1755096;81;21214;-55
2021/01/12 07:20:50;;;;;;;219.97;112.68;;;;;;;-1.37;66.08;94279.66;1746504;80;21216;-52
2021/01/12 07:23:20;;;;;;;225.10;115.67;;;;;;;-1.33;66.03;94276.97;1743138;80;21707;-55
2021/01/12 07:25:49;;;;;;;179.35;95.60;;;;;;;-1.27;66.23;94275.42;1704893;81;21532;-53
2021/01/12 07:28:20;;;;;;;220.97;118.35;;;;;;;-1.31;66.01;94281.40;1724737;80;22136;-52
2021/01/12 07:30:50;;;;;;;198.28;103.20;;;;;;;-1.47;66.21;94285.02;1764938;80;21123;-53
2021/01/12 07:33:24;;;;;;;199.07;102.35;;;;;;;-1.55;66.52;94279.41;1752657;80;21159;-51
2021/01/12 07:35:55;;;;;;;211.72;116.60;;;;;;;-1.64;66.93;94267.66;1754092;80;21575;-52
2021/01/12 07:38:27;;;;;;;182.07;100.75;;;;;;;-1.70;67.05;94271.11;1731586;81;21509;-54
2021/01/12 07:40:59;;;;;;;180.05;97.78;;;;;;;-1.73;67.24;94273.22;1746757;80;22155;-55
2021/01/12 07:43:28;;;;;;;101.83;58.87;;;;;;;-1.63;67.46;94277.30;1750278;80;21283;-54
2021/01/12 07:45:58;;;;;;;141.18;82.53;;;;;;;-1.44;66.92;94273.47;1742352;80;21242;-60
2021/01/12 07:48:28;;;;;;;149.20;79.15;;;;;;;-1.41;66.67;94272.70;1734224;80;21223;-53
2021/01/12 07:50:59;;;;;;;142.50;86.17;;;;;;;-1.38;66.60;94268.67;1729969;80;21540;-52
2021/01/12 07:53:32;;;;;;;125.82;74.60;;;;;;;-1.35;66.81;94265.80;1694741;81;21311;-50
2021/01/12 07:56:03;;;;;;;99.15;56.53;;;;;;;-1.25;66.59;94256.36;1717546;81;21178;-50
2021/01/12 07:58:31;;;;;;;109.55;62.67;;;;;;;-1.19;66.40;94266.17;1742971;81;21147;-51
2021/01/12 08:01:01;;;;;;;118.17;68.12;;;;;;;-1.26;66.37;94264.83;1760013;80;21192;-51
2021/01/12 08:03:31;;;;;;;101.45;60.50;;;;;;;-1.27;66.40;94256.54;1747409;80;22580;-51
2021/01/12 08:06:01;;;;;;;115.00;63.90;;;;;;;-1.17;66.41;94258.48;1743423;81;21475;-52
2021/01/12 08:08:30;;;;;;;113.25;65.87;;;;;;;-1.12;66.30;94259.45;1761622;80;21553;-54
2021/01/12 08:10:58;;;;;;;128.68;71.95;;;;;;;-1.00;66.51;94253.68;1757875;80;21202;-55
2021/01/12 08:13:28;;;;;;;108.97;62.90;;;;;;;-0.86;66.62;94255.00;1746824;80;21472;-55
2021/01/12 08:15:57;;;;;;;104.85;64.05;;;;;;;-0.70;66.09;94246.70;1774718;80;21182;-53
2021/01/12 08:18:26;;;;;;;121.65;70.95;;;;;;;-0.65;65.86;94249.58;1758261;80;22269;-55
2021/01/12 08:20:55;;;;;;;131.27;71.75;;;;;;;-0.61;65.94;94240.91;1713972;81;21927;-53
2021/01/12 08:23:23;;;;;;;110.10;66.15;;;;;;;-0.57;66.07;94237.62;1767740;80;21225;-55
2021/01/12 08:25:53;;;;;;;130.80;75.15;;;;;;;-0.56;65.99;94233.76;1769069;80;21643;-53
2021/01/12 08:28:25;;;;;;;113.10;64.20;;;;;;;-0.60;66.11;94223.55;1751992;80;21669;-52
2021/01/12 08:30:52;;;;;;;130.63;74.58;;;;;;;-0.58;65.92;94225.28;1750721;80;22421;-56
2021/01/12 08:33:31;;;;;;;99.67;57.35;;;;;;;-0.60;65.86;94224.90;1750755;80;21131;-57
2021/01/12 08:36:19;;;;;;;88.97;53.68;;;;;;;-0.61;65.97;94223.36;1752344;80;21171;-52
2021/01/12 08:38:48;;;;;;;156.52;91.20;;;;;;;-0.55;65.96;94213.69;1683800;85;21646;-54
2021/01/12 08:41:16;;;;;;;117.95;71.47;;;;;;;-0.47;65.78;94213.28;1748981;80;21651;-58
2021/01/12 08:43:46;;;;;;;157.90;84.47;;;;;;;-0.30;65.44;94205.70;1766680;80;21382;-58
2021/01/12 08:46:16;;;;;;;159.57;88.27;;;;;;;-0.27;65.25;94210.89;1766361;80;21206;-53
2021/01/12 08:48:50;;;;;;;164.37;92.22;;;;;;;-0.22;65.21;94200.45;1711694;81;21234;-54
2021/01/12 08:51:19;;;;;;;155.70;93.58;;;;;;;-0.06;65.35;94204.08;1755278;80;21230;-58
2021/01/12 08:53:58;;;;;;;190.25;107.47;;;;;;;0.15;65.09;94202.02;1750406;80;21205;-59
2021/01/12 08:56:27;;;;;;;142.15;81.05;;;;;;;0.33;64.94;94193.23;1738989;80;21375;-53
2021/01/12 08:59:05;;;;;;;133.30;76.72;;;;;;;0.42;64.60;94198.39;1744864;81;21214;-52
2021/01/12 09:01:34;;;;;;;105.72;62.05;;;;;;;0.41;64.32;94198.20;1748084;80;21296;-58
2021/01/12 09:04:08;;;;;;;111.83;63.08;;;;;;;0.40;64.20;94199.97;1766174;80;21233;-56
2021/01/12 09:06:36;;;;;;;84.35;48.00;;;;;;;0.51;64.17;94196.03;1741130;81;21185;-57
2021/01/12 09:09:08;;;;;;;94.77;56.20;;;;;;;0.65;63.76;94195.94;1728933;81;21300;-54
2021/01/12 09:11:47;;;;;;;89.50;53.30;;;;;;;0.64;63.67;94188.20;1735211;80;21308;-55
2021/01/12 09:16:59;;;;;;;118.05;60.75;;;;;;;0.72;63.62;94185.05;1859513;76;23340;-55
2021/01/12 09:19:38;;;;;;;109.92;63.05;;;;;;;0.77;63.70;94187.33;1838347;77;21158;-53
2021/01/12 09:22:10;;;;;;;103.47;59.80;;;;;;;0.85;63.42;94188.05;1770553;80;21489;-54
2021/01/12 09:24:39;;;;;;;98.50;54.42;;;;;;;0.99;63.26;94176.50;1760117;80;21579;-55
2021/01/12 09:27:08;;;;;;;102.35;58.65;;;;;;;1.09;62.97;94173.52;1782803;79;21163;-57
2021/01/12 09:29:38;;;;;;;128.50;74.05;;;;;;;1.10;62.78;94162.30;1779543;80;21242;-55
2021/01/12 09:32:06;;;;;;;121.70;70.20;;;;;;;1.03;62.92;94165.08;1805505;78;21169;-55
2021/01/12 09:34:37;;;;;;;115.50;65.25;;;;;;;1.06;62.96;94155.37;1785279;80;21203;-56
2021/01/12 09:37:16;;;;;;;134.22;74.15;;;;;;;1.02;62.83;94160.05;1770073;81;21075;-58
2021/01/12 09:39:48;;;;;;;134.35;74.58;;;;;;;0.93;63.30;94149.69;1770599;79;21236;-52
2021/01/12 09:42:19;;;;;;;128.18;68.02;;;;;;;1.00;63.32;94144.80;1766562;81;21142;-58
2021/01/12 09:44:47;;;;;;;132.78;72.67;;;;;;;1.05;63.35;94136.23;1784851;79;21130;-56
2021/01/12 09:47:16;;;;;;;163.43;88.05;;;;;;;1.10;63.32;94135.81;1816269;78;21206;-60
2021/01/12 09:49:44;;;;;;;128.42;71.45;;;;;;;1.19;63.39;94127.97;1816687;79;21147;-55
2021/01/12 09:52:14;;;;;;;136.97;74.15;;;;;;;1.24;63.14;94125.59;1806207;78;21590;-53
2021/01/12 09:54:47;;;;;;;125.35;75.47;;;;;;;1.25;63.04;94116.87;1785346;80;21142;-56
2021/01/12 09:57:15;;;;;;;117.85;70.97;;;;;;;1.25;63.15;94113.59;1759985;80;21144;-55
2021/01/12 09:59:46;;;;;;;147.17;82.82;;;;;;;1.31;63.11;94111.97;1779352;80;22118;-55
2021/01/12 10:02:15;;;;;;;119.47;65.10;;;;;;;1.34;63.03;94101.67;1794875;78;21996;-52
2021/01/12 10:04:45;;;;;;;148.38;79.90;;;;;;;1.38;63.04;94094.30;1796904;78;21154;-55
2021/01/12 10:07:13;;;;;;;106.00;55.58;;;;;;;1.48;62.98;94089.93;1790985;78;21241;-53
2021/01/12 10:09:42;;;;;;;106.37;56.02;;;;;;;1.70;62.82;94071.63;1773285;80;21178;-51
2021/01/12 10:12:11;;;;;;;140.70;73.25;;;;;;;2.01;62.33;94067.72;1798986;78;21272;-53
2021/01/12 10:14:39;;;;;;;108.40;60.65;;;;;;;2.28;61.87;94067.11;1791598;78;21203;-53
2021/01/12 10:17:08;;;;;;;155.48;82.45;;;;;;;2.53;61.52;94053.94;1794308;79;21218;-55
2021/01/12 10:19:37;;;;;;;124.18;69.42;;;;;;;2.97;61.47;94048.13;1778722;79;21193;-54
2021/01/12 10:22:05;;;;;;;134.95;76.57;;;;;;;3.62;59.98;94040.64;1765822;79;21255;-57
2021/01/12 10:24:34;;;;;;;95.12;57.03;;;;;;;4.08;58.63;94034.96;1770474;79;21400;-54
2021/01/12 10:27:02;;;;;;;109.25;60.43;;;;;;;4.34;57.52;94027.19;1768889;78;21162;-56
2021/01/12 10:29:32;;;;;;;105.03;53.35;;;;;;;4.40;56.73;94024.72;1779399;80;21516;-52
2021/01/12 10:32:01;;;;;;;73.80;42.43;;;;;;;4.24;56.45;94017.91;1787891;78;21235;-55
2021/01/12 10:34:31;;;;;;;72.95;44.73;;;;;;;4.39;56.20;94012.31;1793526;80;21167;-54
2021/01/12 10:36:59;;;;;;;66.05;39.85;;;;;;;4.69;55.46;94011.35;1770565;80;21209;-55
2021/01/12 10:39:29;;;;;;;69.00;39.45;;;;;;;4.81;54.79;94014.73;1785319;78;21143;-54
2021/01/12 10:41:58;;;;;;;65.70;39.50;;;;;;;4.79;54.65;94010.30;1772468;80;21197;-53
2021/01/12 10:44:28;;;;;;;63.08;38.17;;;;;;;4.59;54.68;94008.28;1780818;80;21182;-54
2021/01/12 10:46:58;;;;;;;63.83;37.23;;;;;;;4.26;55.02;94008.11;1791223;78;21190;-57
2021/01/12 10:49:28;;;;;;;52.13;31.07;;;;;;;3.94;55.77;94010.81;1774777;79;22338;-56
2021/01/12 10:52:03;;;;;;;60.05;36.35;;;;;;;3.70;56.31;94005.30;1815466;78;21159;-54
2021/01/12 10:54:32;;;;;;;70.47;43.48;;;;;;;3.51;56.81;93995.22;1818662;78;21653;-57
2021/01/12 10:57:00;;;;;;;85.22;54.83;;;;;;;3.48;57.32;94000.14;1762359;80;21202;-56
2021/01/12 10:59:29;;;;;;;84.80;50.83;;;;;;;3.44;57.72;93995.95;1785651;80;21198;-56
2021/01/12 11:02:01;;;;;;;83.72;45.08;;;;;;;3.51;58.13;93981.63;1816092;78;22321;-55
2021/01/12 11:04:29;;;;;;;76.28;44.55;;;;;;;3.74;58.19;93966.57;1815256;78;21562;-56
2021/01/12 11:07:00;;;;;;;80.22;44.53;;;;;;;4.01;57.70;93974.48;1801832;78;21191;-55
2021/01/12 11:09:31;;;;;;;75.85;44.73;;;;;;;4.16;57.32;93960.14;1792521;78;21125;-59
2021/01/12 11:14:39;;;;;;;79.92;45.92;;;;;;;4.80;56.43;93946.45;1871942;75;22712;-55
2021/01/12 11:17:11;;;;;;;84.70;47.13;;;;;;;5.00;55.81;93948.44;1840112;78;21233;-56
2021/01/12 11:19:42;;;;;;;84.20;46.18;;;;;;;5.05;55.50;93941.11;1812059;78;21596;-56
2021/01/12 11:22:10;;;;;;;112.15;61.68;;;;;;;5.04;55.63;93937.44;1833044;77;21141;-56
2021/01/12 11:24:39;;;;;;;99.42;53.75;;;;;;;4.94;55.51;93918.83;1831716;77;21066;-57
2021/01/12 11:27:08;;;;;;;118.82;60.58;;;;;;;4.82;55.62;93926.34;1797378;78;21202;-55
2021/01/12 11:29:38;;;;;;;135.97;72.55;;;;;;;4.73;56.05;93918.04;1812317;77;21110;-56
2021/01/12 11:32:08;;;;;;;133.95;69.03;;;;;;;4.83;56.01;93914.86;1821850;78;21585;-52